sensor_id;sensor_type;location;lat;lon;timestamp;pressure;altitude;pressure_sealevel;temperature;humidity
24858;BME280;12935;50.782;6.074;2023-05-03T00:00:54;100605.81;;;7.54;100.00
24858;BME280;12935;50.782;6.074;2023-05-03T00:03:19;100606.41;;;7.47;100.00
24858;BME280;12935;50.782;6.074;2023-05-03T00:05:47;100598.13;;;7.44;100.00
24858;BME280;12935;50.782;6.074;2023-05-03T00:08:15;100605.72;;;7.50;100.00
24858;BME280;12935;50.782;6.074;2023-05-03T00:10:41;100600.97;;;7.47;100.00
24858;BME280;12935;50.782;6.074;2023-05-03T00:13:06;100610.94;;;7.43;100.00
24858;BME280;12935;50.782;6.074;2023-05-03T00:15:32;100611.28;;;7.42;100.00
24858;BME280;12935;50.782;6.074;2023-05-03T00:17:57;100610.66;;;7.32;100.00
24858;BME280;12935;50.782;6.074;2023-05-03T00:20:22;100606.22;;;7.28;100.00
24858;BME280;12935;50.782;6.074;2023-05-03T00:22:49;100613.47;;;7.36;100.00
24858;BME280;12935;50.782;6.074;2023-05-03T00:25:14;100615.06;;;7.37;100.00
24858;BME280;12935;50.782;6.074;2023-05-03T00:27:39;100610.88;;;7.39;100.00
24858;BME280;12935;50.782;6.074;2023-05-03T00:30:05;100601.69;;;7.32;100.00
24858;BME280;12935;50.782;6.074;2023-05-03T00:32:31;100601.13;;;7.26;100.00
24858;BME280;12935;50.782;6.074;2023-05-03T00:34:57;100609.22;;;7.23;100.00
24858;BME280;12935;50.782;6.074;2023-05-03T00:37:23;100609.09;;;7.19;100.00
24858;BME280;12935;50.782;6.074;2023-05-03T00:39:49;100609.31;;;7.14;100.00
24858;BME280;12935;50.782;6.074;2023-05-03T00:42:15;100611.13;;;7.10;100.00
24858;BME280;12935;50.782;6.074;2023-05-03T00:44:41;100607.09;;;7.04;100.00
24858;BME280;12935;50.782;6.074;2023-05-03T00:47:07;100603.91;;;7.02;100.00
24858;BME280;12935;50.782;6.074;2023-05-03T00:49:32;100609.56;;;7.09;100.00
24858;BME280;12935;50.782;6.074;2023-05-03T00:51:58;100604.38;;;7.04;100.00
24858;BME280;12935;50.782;6.074;2023-05-03T00:54:26;100595.66;;;6.98;100.00
24858;BME280;12935;50.782;6.074;2023-05-03T00:56:51;100599.75;;;6.92;100.00
24858;BME280;12935;50.782;6.074;2023-05-03T00:59:17;100598.50;;;6.90;100.00
24858;BME280;12935;50.782;6.074;2023-05-03T01:01:47;100591.50;;;6.89;100.00
24858;BME280;12935;50.782;6.074;2023-05-03T01:04:13;100584.22;;;6.93;100.00
24858;BME280;12935;50.782;6.074;2023-05-03T01:12:08;100581.19;;;6.82;100.00
24858;BME280;12935;50.782;6.074;2023-05-03T01:17:38;100593.53;;;6.80;100.00
24858;BME280;12935;50.782;6.074;2023-05-03T01:20:05;100589.22;;;6.79;100.00
24858;BME280;12935;50.782;6.074;2023-05-03T01:22:44;100587.22;;;6.76;100.00
24858;BME280;12935;50.782;6.074;2023-05-03T01:25:12;100593.06;;;6.65;100.00
24858;BME280;12935;50.782;6.074;2023-05-03T01:27:39;100587.31;;;6.67;100.00
24858;BME280;12935;50.782;6.074;2023-05-03T01:30:06;100590.59;;;6.73;100.00
24858;BME280;12935;50.782;6.074;2023-05-03T01:32:48;100594.66;;;6.66;100.00
24858;BME280;12935;50.782;6.074;2023-05-03T01:35:36;100589.69;;;6.68;100.00
24858;BME280;12935;50.782;6.074;2023-05-03T01:38:02;100586.84;;;6.65;100.00
24858;BME280;12935;50.782;6.074;2023-05-03T01:40:29;100581.69;;;6.60;100.00
24858;BME280;12935;50.782;6.074;2023-05-03T01:42:56;100583.94;;;6.58;100.00
24858;BME280;12935;50.782;6.074;2023-05-03T01:45:22;100587.00;;;6.56;100.00
24858;BME280;12935;50.782;6.074;2023-05-03T01:47:47;100585.84;;;6.57;100.00
24858;BME280;12935;50.782;6.074;2023-05-03T01:50:13;100582.09;;;6.50;100.00
24858;BME280;12935;50.782;6.074;2023-05-03T01:52:38;100578.72;;;6.41;100.00
24858;BME280;12935;50.782;6.074;2023-05-03T01:55:04;100592.31;;;6.41;100.00
24858;BME280;12935;50.782;6.074;2023-05-03T01:57:30;100588.91;;;6.44;100.00
24858;BME280;12935;50.782;6.074;2023-05-03T01:59:55;100599.97;;;6.39;100.00
24858;BME280;12935;50.782;6.074;2023-05-03T02:02:20;100606.41;;;6.46;100.00
24858;BME280;12935;50.782;6.074;2023-05-03T02:04:46;100601.34;;;6.45;100.00
24858;BME280;12935;50.782;6.074;2023-05-03T02:07:11;100604.50;;;6.34;100.00
24858;BME280;12935;50.782;6.074;2023-05-03T02:09:37;100609.94;;;6.34;100.00
24858;BME280;12935;50.782;6.074;2023-05-03T02:12:02;100613.91;;;6.37;100.00
24858;BME280;12935;50.782;6.074;2023-05-03T02:14:27;100611.19;;;6.37;100.00
24858;BME280;12935;50.782;6.074;2023-05-03T02:16:53;100617.59;;;6.32;100.00
24858;BME280;12935;50.782;6.074;2023-05-03T02:19:19;100619.78;;;6.27;100.00
24858;BME280;12935;50.782;6.074;2023-05-03T02:21:44;100618.06;;;6.22;100.00
24858;BME280;12935;50.782;6.074;2023-05-03T02:24:10;100613.63;;;6.18;100.00
24858;BME280;12935;50.782;6.074;2023-05-03T02:26:35;100613.94;;;6.04;100.00
24858;BME280;12935;50.782;6.074;2023-05-03T02:29:01;100619.97;;;6.10;100.00
24858;BME280;12935;50.782;6.074;2023-05-03T02:31:26;100619.63;;;6.11;100.00
24858;BME280;12935;50.782;6.074;2023-05-03T02:33:51;100616.22;;;6.14;100.00
24858;BME280;12935;50.782;6.074;2023-05-03T02:36:19;100612.50;;;6.19;100.00
24858;BME280;12935;50.782;6.074;2023-05-03T02:38:44;100622.81;;;6.13;100.00
24858;BME280;12935;50.782;6.074;2023-05-03T02:41:09;100616.66;;;6.04;100.00
24858;BME280;12935;50.782;6.074;2023-05-03T02:43:35;100617.59;;;6.08;100.00
24858;BME280;12935;50.782;6.074;2023-05-03T02:46:00;100617.38;;;6.13;100.00
24858;BME280;12935;50.782;6.074;2023-05-03T02:48:25;100618.94;;;6.14;100.00
24858;BME280;12935;50.782;6.074;2023-05-03T02:50:50;100614.53;;;6.10;100.00
24858;BME280;12935;50.782;6.074;2023-05-03T02:53:16;100611.50;;;6.11;100.00
24858;BME280;12935;50.782;6.074;2023-05-03T02:55:42;100610.31;;;6.00;100.00
24858;BME280;12935;50.782;6.074;2023-05-03T02:58:07;100603.75;;;6.01;100.00
24858;BME280;12935;50.782;6.074;2023-05-03T03:00:34;100602.09;;;6.09;100.00
24858;BME280;12935;50.782;6.074;2023-05-03T03:02:59;100597.06;;;5.98;100.00
24858;BME280;12935;50.782;6.074;2023-05-03T03:05:25;100598.22;;;5.97;100.00
24858;BME280;12935;50.782;6.074;2023-05-03T03:07:50;100591.88;;;5.93;100.00
24858;BME280;12935;50.782;6.074;2023-05-03T03:10:15;100590.63;;;5.91;100.00
24858;BME280;12935;50.782;6.074;2023-05-03T03:12:41;100594.81;;;5.88;100.00
24858;BME280;12935;50.782;6.074;2023-05-03T03:15:07;100585.47;;;5.98;100.00
24858;BME280;12935;50.782;6.074;2023-05-03T03:17:32;100581.16;;;5.97;100.00
24858;BME280;12935;50.782;6.074;2023-05-03T03:19:58;100564.13;;;5.88;100.00
24858;BME280;12935;50.782;6.074;2023-05-03T03:22:23;100569.25;;;5.89;100.00
24858;BME280;12935;50.782;6.074;2023-05-03T03:24:50;100569.91;;;5.86;100.00
24858;BME280;12935;50.782;6.074;2023-05-03T03:27:15;100559.63;;;5.80;100.00
24858;BME280;12935;50.782;6.074;2023-05-03T03:29:41;100552.16;;;5.77;100.00
24858;BME280;12935;50.782;6.074;2023-05-03T03:32:06;100554.41;;;5.75;100.00
24858;BME280;12935;50.782;6.074;2023-05-03T03:34:31;100537.53;;;5.69;100.00
24858;BME280;12935;50.782;6.074;2023-05-03T03:36:57;100537.53;;;5.69;100.00
24858;BME280;12935;50.782;6.074;2023-05-03T03:39:22;100514.38;;;5.59;100.00
24858;BME280;12935;50.782;6.074;2023-05-03T03:41:48;100533.25;;;5.68;100.00
24858;BME280;12935;50.782;6.074;2023-05-03T03:44:13;100532.81;;;5.66;100.00
24858;BME280;12935;50.782;6.074;2023-05-03T03:46:38;100529.50;;;5.60;100.00
24858;BME280;12935;50.782;6.074;2023-05-03T03:49:04;100527.31;;;5.54;100.00
24858;BME280;12935;50.782;6.074;2023-05-03T03:51:29;100529.00;;;5.46;100.00
24858;BME280;12935;50.782;6.074;2023-05-03T03:53:55;100538.47;;;5.40;100.00
24858;BME280;12935;50.782;6.074;2023-05-03T03:56:20;100540.38;;;5.40;100.00
24858;BME280;12935;50.782;6.074;2023-05-03T03:58:46;100540.38;;;5.40;100.00
24858;BME280;12935;50.782;6.074;2023-05-03T04:01:11;100553.75;;;5.45;100.00
24858;BME280;12935;50.782;6.074;2023-05-03T04:03:36;100561.69;;;5.50;100.00
24858;BME280;12935;50.782;6.074;2023-05-03T04:06:02;100559.16;;;5.45;100.00
24858;BME280;12935;50.782;6.074;2023-05-03T04:08:27;100556.25;;;5.50;100.00
24858;BME280;12935;50.782;6.074;2023-05-03T04:10:52;100554.34;;;5.50;100.00
24858;BME280;12935;50.782;6.074;2023-05-03T04:13:18;100562.84;;;5.61;100.00
24858;BME280;12935;50.782;6.074;2023-05-03T04:15:43;100569.97;;;5.66;100.00
24858;BME280;12935;50.782;6.074;2023-05-03T04:18:08;100566.66;;;5.60;100.00
24858;BME280;12935;50.782;6.074;2023-05-03T04:20:34;100571.50;;;5.54;100.00
24858;BME280;12935;50.782;6.074;2023-05-03T04:23:00;100569.13;;;5.53;100.00
24858;BME280;12935;50.782;6.074;2023-05-03T04:25:25;100562.03;;;5.60;100.00
24858;BME280;12935;50.782;6.074;2023-05-03T04:27:51;100564.81;;;5.52;100.00
24858;BME280;12935;50.782;6.074;2023-05-03T04:30:16;100560.09;;;5.49;100.00
24858;BME280;12935;50.782;6.074;2023-05-03T04:32:42;100561.22;;;5.48;100.00
24858;BME280;12935;50.782;6.074;2023-05-03T04:35:08;100553.94;;;5.40;100.00
24858;BME280;12935;50.782;6.074;2023-05-03T04:37:39;100565.03;;;5.47;100.00
24858;BME280;12935;50.782;6.074;2023-05-03T04:40:06;100559.75;;;5.50;100.00
24858;BME280;12935;50.782;6.074;2023-05-03T04:42:33;100568.75;;;5.42;100.00
24858;BME280;12935;50.782;6.074;2023-05-03T04:44:59;100574.63;;;5.44;100.00
24858;BME280;12935;50.782;6.074;2023-05-03T04:47:26;100574.63;;;5.44;100.00
24858;BME280;12935;50.782;6.074;2023-05-03T04:49:52;100576.34;;;5.49;100.00
24858;BME280;12935;50.782;6.074;2023-05-03T04:52:17;100584.53;;;5.61;100.00
24858;BME280;12935;50.782;6.074;2023-05-03T04:54:42;100599.00;;;5.65;100.00
24858;BME280;12935;50.782;6.074;2023-05-03T04:57:07;100594.59;;;5.73;100.00
24858;BME280;12935;50.782;6.074;2023-05-03T04:59:34;100599.97;;;5.81;100.00
24858;BME280;12935;50.782;6.074;2023-05-03T05:02:00;100601.75;;;5.77;100.00
24858;BME280;12935;50.782;6.074;2023-05-03T05:04:25;100599.03;;;5.77;100.00
24858;BME280;12935;50.782;6.074;2023-05-03T05:06:52;100610.13;;;5.84;100.00
24858;BME280;12935;50.782;6.074;2023-05-03T05:09:22;100610.25;;;5.88;100.00
24858;BME280;12935;50.782;6.074;2023-05-03T05:11:48;100612.16;;;5.87;100.00
24858;BME280;12935;50.782;6.074;2023-05-03T05:14:14;100615.03;;;5.91;100.00
24858;BME280;12935;50.782;6.074;2023-05-03T05:16:39;100618.13;;;6.02;100.00
24858;BME280;12935;50.782;6.074;2023-05-03T05:19:05;100616.22;;;6.14;100.00
24858;BME280;12935;50.782;6.074;2023-05-03T05:21:30;100620.66;;;6.19;100.00
24858;BME280;12935;50.782;6.074;2023-05-03T05:23:55;100612.28;;;6.12;100.00
24858;BME280;12935;50.782;6.074;2023-05-03T05:26:20;100615.56;;;6.17;100.00
24858;BME280;12935;50.782;6.074;2023-05-03T05:28:46;100621.78;;;6.30;100.00
24858;BME280;12935;50.782;6.074;2023-05-03T05:31:11;100619.44;;;6.41;100.00
24858;BME280;12935;50.782;6.074;2023-05-03T05:33:37;100627.00;;;6.47;100.00
24858;BME280;12935;50.782;6.074;2023-05-03T05:36:03;100630.31;;;6.53;100.00
24858;BME280;12935;50.782;6.074;2023-05-03T05:38:28;100630.31;;;6.53;100.00
24858;BME280;12935;50.782;6.074;2023-05-03T05:40:54;100629.97;;;6.54;100.00
24858;BME280;12935;50.782;6.074;2023-05-03T05:43:19;100628.84;;;6.67;100.00
24858;BME280;12935;50.782;6.074;2023-05-03T05:45:45;100632.81;;;6.70;100.00
24858;BME280;12935;50.782;6.074;2023-05-03T05:48:11;100640.94;;;6.82;100.00
24858;BME280;12935;50.782;6.074;2023-05-03T05:50:36;100640.59;;;6.96;100.00
24858;BME280;12935;50.782;6.074;2023-05-03T05:53:02;100641.63;;;7.03;100.00
24858;BME280;12935;50.782;6.074;2023-05-03T05:55:27;100636.97;;;7.16;100.00
24858;BME280;12935;50.782;6.074;2023-05-03T05:57:52;100636.72;;;7.21;100.00
24858;BME280;12935;50.782;6.074;2023-05-03T06:00:18;100641.13;;;7.26;100.00
24858;BME280;12935;50.782;6.074;2023-05-03T06:02:45;100645.44;;;7.15;100.00
24858;BME280;12935;50.782;6.074;2023-05-03T06:05:11;100660.59;;;7.28;100.00
24858;BME280;12935;50.782;6.074;2023-05-03T06:07:36;100651.34;;;7.17;100.00
24858;BME280;12935;50.782;6.074;2023-05-03T06:10:02;100652.00;;;7.26;100.00
24858;BME280;12935;50.782;6.074;2023-05-03T06:12:28;100653.88;;;7.50;100.00
24858;BME280;12935;50.782;6.074;2023-05-03T06:14:53;100645.00;;;7.65;100.00
24858;BME280;12935;50.782;6.074;2023-05-03T06:17:19;100650.47;;;7.81;100.00
24858;BME280;12935;50.782;6.074;2023-05-03T06:19:44;100651.22;;;7.93;100.00
24858;BME280;12935;50.782;6.074;2023-05-03T06:22:10;100649.56;;;8.04;100.00
24858;BME280;12935;50.782;6.074;2023-05-03T06:24:35;100643.88;;;8.09;100.00
24858;BME280;12935;50.782;6.074;2023-05-03T06:27:00;100647.72;;;8.08;100.00
24858;BME280;12935;50.782;6.074;2023-05-03T06:29:26;100648.78;;;8.20;100.00
24858;BME280;12935;50.782;6.074;2023-05-03T06:31:53;100642.38;;;8.12;100.00
24858;BME280;12935;50.782;6.074;2023-05-03T06:34:19;100639.53;;;7.93;100.00
24858;BME280;12935;50.782;6.074;2023-05-03T06:36:46;100639.78;;;8.16;100.00
24858;BME280;12935;50.782;6.074;2023-05-03T06:39:11;100642.94;;;8.18;100.00
24858;BME280;12935;50.782;6.074;2023-05-03T06:41:37;100635.91;;;8.17;100.00
24858;BME280;12935;50.782;6.074;2023-05-03T06:44:03;100645.84;;;8.25;100.00
24858;BME280;12935;50.782;6.074;2023-05-03T06:46:29;100641.41;;;8.48;100.00
24858;BME280;12935;50.782;6.074;2023-05-03T06:48:55;100637.94;;;8.67;100.00
24858;BME280;12935;50.782;6.074;2023-05-03T06:51:22;100641.47;;;8.83;100.00
24858;BME280;12935;50.782;6.074;2023-05-03T06:53:52;100640.59;;;8.95;100.00
24858;BME280;12935;50.782;6.074;2023-05-03T06:56:17;100642.06;;;9.08;100.00
24858;BME280;12935;50.782;6.074;2023-05-03T06:58:42;100645.09;;;9.22;100.00
24858;BME280;12935;50.782;6.074;2023-05-03T07:01:07;100638.72;;;9.34;100.00
24858;BME280;12935;50.782;6.074;2023-05-03T07:03:33;100631.97;;;9.28;100.00
24858;BME280;12935;50.782;6.074;2023-05-03T07:05:58;100632.28;;;9.42;100.00
24858;BME280;12935;50.782;6.074;2023-05-03T07:08:24;100639.97;;;9.56;100.00
24858;BME280;12935;50.782;6.074;2023-05-03T07:10:49;100631.53;;;9.64;100.00
24858;BME280;12935;50.782;6.074;2023-05-03T07:13:14;100632.19;;;9.77;100.00
24858;BME280;12935;50.782;6.074;2023-05-03T07:15:39;100622.56;;;9.83;100.00
24858;BME280;12935;50.782;6.074;2023-05-03T07:18:05;100623.91;;;9.93;98.18
24858;BME280;12935;50.782;6.074;2023-05-03T07:20:30;100623.69;;;10.01;97.65
24858;BME280;12935;50.782;6.074;2023-05-03T07:22:56;100616.47;;;10.12;97.35
24858;BME280;12935;50.782;6.074;2023-05-03T07:25:22;100622.16;;;10.23;96.61
24858;BME280;12935;50.782;6.074;2023-05-03T07:27:47;100613.38;;;10.33;94.93
24858;BME280;12935;50.782;6.074;2023-05-03T07:30:13;100618.47;;;10.35;95.48
24858;BME280;12935;50.782;6.074;2023-05-03T07:32:38;100620.28;;;10.50;95.20
24858;BME280;12935;50.782;6.074;2023-05-03T07:35:04;100617.47;;;10.46;94.83
24858;BME280;12935;50.782;6.074;2023-05-03T07:37:31;100618.44;;;10.58;94.19
24858;BME280;12935;50.782;6.074;2023-05-03T07:39:56;100609.94;;;10.63;93.73
24858;BME280;12935;50.782;6.074;2023-05-03T07:42:22;100604.69;;;10.77;92.61
24858;BME280;12935;50.782;6.074;2023-05-03T07:44:47;100603.31;;;10.90;91.35
24858;BME280;12935;50.782;6.074;2023-05-03T07:47:12;100618.22;;;10.93;88.91
24858;BME280;12935;50.782;6.074;2023-05-03T07:49:37;100611.88;;;10.88;87.58
24858;BME280;12935;50.782;6.074;2023-05-03T07:52:03;100610.56;;;11.05;88.35
24858;BME280;12935;50.782;6.074;2023-05-03T07:54:28;100600.19;;;11.18;85.97
24858;BME280;12935;50.782;6.074;2023-05-03T07:56:53;100590.13;;;11.25;84.25
24858;BME280;12935;50.782;6.074;2023-05-03T07:59:19;100595.66;;;11.29;85.06
24858;BME280;12935;50.782;6.074;2023-05-03T08:01:44;100601.63;;;11.38;85.39
24858;BME280;12935;50.782;6.074;2023-05-03T08:04:09;100600.28;;;11.55;85.34
24858;BME280;12935;50.782;6.074;2023-05-03T08:06:35;100598.44;;;11.66;83.73
24858;BME280;12935;50.782;6.074;2023-05-03T08:09:02;100601.59;;;11.65;83.55
24858;BME280;12935;50.782;6.074;2023-05-03T08:11:29;100604.50;;;11.79;83.56
24858;BME280;12935;50.782;6.074;2023-05-03T08:13:55;100603.78;;;11.85;80.88
24858;BME280;12935;50.782;6.074;2023-05-03T08:16:20;100602.75;;;12.01;78.89
24858;BME280;12935;50.782;6.074;2023-05-03T08:18:45;100601.97;;;12.00;76.70
24858;BME280;12935;50.782;6.074;2023-05-03T08:21:11;100606.41;;;12.12;76.86
24858;BME280;12935;50.782;6.074;2023-05-03T08:23:37;100608.84;;;12.20;74.13
24858;BME280;12935;50.782;6.074;2023-05-03T08:26:03;100600.72;;;12.35;73.08
24858;BME280;12935;50.782;6.074;2023-05-03T08:28:29;100611.06;;;12.52;71.12
24858;BME280;12935;50.782;6.074;2023-05-03T08:30:55;100607.59;;;12.58;69.62
24858;BME280;12935;50.782;6.074;2023-05-03T08:33:21;100598.63;;;12.65;68.59
24858;BME280;12935;50.782;6.074;2023-05-03T08:35:46;100594.72;;;12.66;68.41
24858;BME280;12935;50.782;6.074;2023-05-03T08:38:11;100602.22;;;12.76;68.71
24858;BME280;12935;50.782;6.074;2023-05-03T08:40:38;100604.69;;;12.88;67.74
24858;BME280;12935;50.782;6.074;2023-05-03T08:43:07;100593.22;;;12.72;65.33
24858;BME280;12935;50.782;6.074;2023-05-03T08:45:34;100598.38;;;12.84;65.89
24858;BME280;12935;50.782;6.074;2023-05-03T08:47:59;100592.19;;;12.98;64.98
24858;BME280;12935;50.782;6.074;2023-05-03T08:50:27;100590.31;;;13.13;66.30
24858;BME280;12935;50.782;6.074;2023-05-03T08:52:52;100577.47;;;13.20;65.06
24858;BME280;12935;50.782;6.074;2023-05-03T08:55:17;100581.78;;;13.28;63.87
24858;BME280;12935;50.782;6.074;2023-05-03T08:57:43;100573.19;;;13.30;63.01
24858;BME280;12935;50.782;6.074;2023-05-03T09:00:08;100579.06;;;13.28;63.31
24858;BME280;12935;50.782;6.074;2023-05-03T09:02:38;100574.81;;;13.45;63.91
24858;BME280;12935;50.782;6.074;2023-05-03T09:07:39;100572.91;;;13.63;61.21
24858;BME280;12935;50.782;6.074;2023-05-03T09:10:21;100568.22;;;13.75;61.28
24858;BME280;12935;50.782;6.074;2023-05-03T09:12:47;100566.69;;;13.91;61.14
24858;BME280;12935;50.782;6.074;2023-05-03T09:15:20;100579.97;;;13.64;57.69
24858;BME280;12935;50.782;6.074;2023-05-03T09:18:05;100584.75;;;13.82;59.32
24858;BME280;12935;50.782;6.074;2023-05-03T09:20:35;100593.41;;;13.98;58.92
24858;BME280;12935;50.782;6.074;2023-05-03T09:23:00;100591.44;;;14.05;57.92
24858;BME280;12935;50.782;6.074;2023-05-03T09:25:39;100586.75;;;14.17;58.01
24858;BME280;12935;50.782;6.074;2023-05-03T09:28:05;100586.38;;;14.36;57.52
24858;BME280;12935;50.782;6.074;2023-05-03T09:30:30;100577.75;;;14.48;57.07
24858;BME280;12935;50.782;6.074;2023-05-03T09:32:55;100575.00;;;14.48;54.63
24858;BME280;12935;50.782;6.074;2023-05-03T09:35:21;100567.16;;;14.54;56.27
24858;BME280;12935;50.782;6.074;2023-05-03T09:37:46;100570.66;;;14.72;57.06
24858;BME280;12935;50.782;6.074;2023-05-03T09:40:12;100554.59;;;14.46;52.77
24858;BME280;12935;50.782;6.074;2023-05-03T09:43:08;100554.91;;;14.80;55.22
24858;BME280;12935;50.782;6.074;2023-05-03T09:45:35;100563.47;;;15.17;55.42
24858;BME280;12935;50.782;6.074;2023-05-03T09:48:02;100553.56;;;15.41;54.95
24858;BME280;12935;50.782;6.074;2023-05-03T09:50:28;100552.72;;;15.48;55.41
24858;BME280;12935;50.782;6.074;2023-05-03T09:52:53;100544.78;;;15.71;54.48
24858;BME280;12935;50.782;6.074;2023-05-03T09:55:20;100546.59;;;15.92;53.62
24858;BME280;12935;50.782;6.074;2023-05-03T09:57:46;100545.69;;;16.09;51.53
24858;BME280;12935;50.782;6.074;2023-05-03T10:00:12;100542.38;;;16.28;51.12
24858;BME280;12935;50.782;6.074;2023-05-03T10:02:40;100540.22;;;16.50;52.79
24858;BME280;12935;50.782;6.074;2023-05-03T10:05:09;100544.16;;;16.53;51.89
24858;BME280;12935;50.782;6.074;2023-05-03T10:07:38;100548.84;;;16.56;51.51
24858;BME280;12935;50.782;6.074;2023-05-03T10:10:05;100552.63;;;16.76;51.18
24858;BME280;12935;50.782;6.074;2023-05-03T10:12:31;100560.50;;;16.74;52.47
24858;BME280;12935;50.782;6.074;2023-05-03T10:15:01;100549.06;;;17.13;50.93
24858;BME280;12935;50.782;6.074;2023-05-03T10:17:31;100553.34;;;17.48;50.03
24858;BME280;12935;50.782;6.074;2023-05-03T10:20:11;100556.84;;;17.52;47.58
24858;BME280;12935;50.782;6.074;2023-05-03T10:25:35;100553.34;;;17.48;49.08
24858;BME280;12935;50.782;6.074;2023-05-03T10:28:05;100545.16;;;17.98;47.89
24858;BME280;12935;50.782;6.074;2023-05-03T10:33:27;100546.81;;;18.19;47.71
24858;BME280;12935;50.782;6.074;2023-05-03T10:35:52;100553.13;;;18.43;44.25
24858;BME280;12935;50.782;6.074;2023-05-03T10:38:22;100552.53;;;18.78;45.32
24858;BME280;12935;50.782;6.074;2023-05-03T10:40:48;100555.78;;;19.16;43.52
24858;BME280;12935;50.782;6.074;2023-05-03T10:45:58;100538.84;;;19.31;43.87
24858;BME280;12935;50.782;6.074;2023-05-03T10:48:24;100537.06;;;19.60;43.32
24858;BME280;12935;50.782;6.074;2023-05-03T10:50:50;100531.09;;;19.61;42.65
24858;BME280;12935;50.782;6.074;2023-05-03T10:56:13;100534.06;;;20.19;41.24
24858;BME280;12935;50.782;6.074;2023-05-03T10:58:45;100528.00;;;20.24;40.71
24858;BME280;12935;50.782;6.074;2023-05-03T11:01:12;100521.75;;;20.20;41.83
24858;BME280;12935;50.782;6.074;2023-05-03T11:03:42;100517.84;;;20.34;42.30
24858;BME280;12935;50.782;6.074;2023-05-03T11:06:08;100512.53;;;20.72;41.80
24858;BME280;12935;50.782;6.074;2023-05-03T11:08:34;100518.31;;;21.07;38.94
24858;BME280;12935;50.782;6.074;2023-05-03T11:11:03;100525.88;;;21.06;38.20
24858;BME280;12935;50.782;6.074;2023-05-03T11:13:33;100512.31;;;21.08;38.47
24858;BME280;12935;50.782;6.074;2023-05-03T11:15:59;100514.00;;;20.77;39.83
24858;BME280;12935;50.782;6.074;2023-05-03T11:18:25;100516.06;;;21.30;37.12
24858;BME280;12935;50.782;6.074;2023-05-03T11:20:51;100510.88;;;21.70;37.04
24858;BME280;12935;50.782;6.074;2023-05-03T11:23:17;100504.97;;;21.56;38.46
24858;BME280;12935;50.782;6.074;2023-05-03T11:25:43;100507.31;;;21.16;40.38
24858;BME280;12935;50.782;6.074;2023-05-03T11:28:08;100505.75;;;21.69;38.14
24858;BME280;12935;50.782;6.074;2023-05-03T11:30:34;100500.50;;;22.09;37.16
24858;BME280;12935;50.782;6.074;2023-05-03T11:33:01;100499.06;;;22.17;37.68
24858;BME280;12935;50.782;6.074;2023-05-03T11:35:28;100494.63;;;22.42;36.52
24858;BME280;12935;50.782;6.074;2023-05-03T11:37:54;100498.59;;;22.53;35.73
24858;BME280;12935;50.782;6.074;2023-05-03T11:40:19;100501.53;;;22.71;35.26
24858;BME280;12935;50.782;6.074;2023-05-03T11:42:55;100495.22;;;22.93;35.01
24858;BME280;12935;50.782;6.074;2023-05-03T11:45:23;100495.09;;;22.96;34.96
24858;BME280;12935;50.782;6.074;2023-05-03T11:47:50;100502.13;;;23.32;34.35
24858;BME280;12935;50.782;6.074;2023-05-03T11:50:16;100492.25;;;23.40;35.02
24858;BME280;12935;50.782;6.074;2023-05-03T11:52:41;100483.44;;;22.54;33.79
24858;BME280;12935;50.782;6.074;2023-05-03T11:55:07;100495.00;;;22.65;35.62
24858;BME280;12935;50.782;6.074;2023-05-03T11:57:35;100484.69;;;23.19;33.53
24858;BME280;12935;50.782;6.074;2023-05-03T12:00:14;100486.16;;;23.54;32.96
24858;BME280;12935;50.782;6.074;2023-05-03T12:02:46;100476.03;;;23.88;32.88
24858;BME280;12935;50.782;6.074;2023-05-03T12:05:12;100466.94;;;24.05;32.85
24858;BME280;12935;50.782;6.074;2023-05-03T12:07:37;100467.28;;;23.36;32.43
24858;BME280;12935;50.782;6.074;2023-05-03T12:10:16;100472.22;;;23.63;33.29
24858;BME280;12935;50.782;6.074;2023-05-03T12:12:55;100456.34;;;24.00;33.38
24858;BME280;12935;50.782;6.074;2023-05-03T12:15:54;100460.00;;;24.37;32.89
24858;BME280;12935;50.782;6.074;2023-05-03T12:18:20;100462.63;;;24.32;32.70
24858;BME280;12935;50.782;6.074;2023-05-03T12:20:54;100461.94;;;24.09;33.82
24858;BME280;12935;50.782;6.074;2023-05-03T12:23:21;100458.94;;;23.76;33.65
24858;BME280;12935;50.782;6.074;2023-05-03T12:25:47;100457.16;;;24.19;31.94
24858;BME280;12935;50.782;6.074;2023-05-03T12:28:12;100453.16;;;24.47;31.03
24858;BME280;12935;50.782;6.074;2023-05-03T12:30:38;100451.63;;;24.46;32.55
24858;BME280;12935;50.782;6.074;2023-05-03T12:33:03;100440.72;;;24.85;31.73
24858;BME280;12935;50.782;6.074;2023-05-03T12:35:28;100436.19;;;25.06;31.12
24858;BME280;12935;50.782;6.074;2023-05-03T12:37:54;100451.00;;;23.35;32.45
24858;BME280;12935;50.782;6.074;2023-05-03T12:40:20;100441.63;;;23.91;31.97
24858;BME280;12935;50.782;6.074;2023-05-03T12:42:48;100437.19;;;24.30;31.82
24858;BME280;12935;50.782;6.074;2023-05-03T12:45:13;100435.06;;;23.04;32.42
24858;BME280;12935;50.782;6.074;2023-05-03T12:47:40;100434.78;;;23.92;31.97
24858;BME280;12935;50.782;6.074;2023-05-03T12:50:06;100415.72;;;24.81;31.01
24858;BME280;12935;50.782;6.074;2023-05-03T12:52:33;100427.25;;;25.92;29.47
24858;BME280;12935;50.782;6.074;2023-05-03T12:54:58;100420.13;;;27.27;28.16
24858;BME280;12935;50.782;6.074;2023-05-03T12:57:24;100420.38;;;29.43;25.60
24858;BME280;12935;50.782;6.074;2023-05-03T12:59:50;100419.69;;;31.22;23.13
24858;BME280;12935;50.782;6.074;2023-05-03T13:02:19;100416.94;;;31.97;22.35
24858;BME280;12935;50.782;6.074;2023-05-03T13:04:44;100430.59;;;32.51;21.91
24858;BME280;12935;50.782;6.074;2023-05-03T13:07:11;100419.38;;;33.10;21.52
24858;BME280;12935;50.782;6.074;2023-05-03T13:09:43;100417.44;;;33.54;20.44